Terminal Aerodrome Forecast
Issued by NWS Chicago, IL

Home | Current Version | Previous Version | Graphics & Text | Print | Product List | Glossary On
Versions: 1 2 3 4 5 6 7 8 9 10 11 12 13 14 15 16 17 18 19 20 21 22 23 24 25 26 27 28 29 30 31 32
000
FTUS43 KLOT 181100
TAFRFD
TAF
KRFD 181120Z 1812/1912 04005KT 6SM BR SCT020
      TEMPO 1812/1814 BKN007
     FM181400 05007KT P6SM FEW007 BKN012
     FM181800 08008KT P6SM FEW025 SCT250
     FM190600 12005KT P6SM SKC=

USA.gov is the U.S. government's official web portal to all federal, state and local government web resources and services.